createdAt,value
2023-03-21T00:02:08.874Z,99326.69
2023-03-21T00:04:58.510Z,99319.81
2023-03-21T00:07:49.771Z,99327.69
2023-03-21T00:10:41.909Z,99319.16
2023-03-21T00:13:34.327Z,99322.53
2023-03-21T00:16:25.043Z,99321.53
2023-03-21T00:19:14.430Z,99316.22
2023-03-21T00:22:08.091Z,99309.28
2023-03-21T00:24:55.480Z,99317.88
2023-03-21T00:28:01.047Z,99311.81
2023-03-21T00:30:48.774Z,99306.66
2023-03-21T00:33:35.962Z,99296.25
2023-03-21T00:36:25.782Z,99292.81
2023-03-21T00:39:12.460Z,99296.22
2023-03-21T00:41:58.868Z,99292.78
2023-03-21T00:44:45.466Z,99282.38
2023-03-21T00:47:32.300Z,99205.38
2023-03-21T00:50:19.096Z,99281.56
2023-03-21T00:53:07.101Z,99262.69
2023-03-21T00:55:53.601Z,99285.09
2023-03-21T00:58:39.862Z,99272.97
2023-03-21T01:01:31.828Z,99277.25
2023-03-21T01:04:18.940Z,99276.31
2023-03-21T01:07:05.448Z,99269.41
2023-03-21T01:09:51.954Z,99271.16
2023-03-21T01:12:38.827Z,99265.97
2023-03-21T01:15:25.421Z,99261.66
2023-03-21T01:18:12.342Z,99262.53
2023-03-21T01:21:00.382Z,99255.56
2023-03-21T01:23:47.476Z,99265.94
2023-03-21T01:26:33.841Z,99259.09
2023-03-21T01:29:20.179Z,99261.84
2023-03-21T01:32:07.075Z,99255.81
2023-03-21T01:34:53.659Z,99249.75
2023-03-21T01:37:43.532Z,99247.31
2023-03-21T01:40:30.647Z,99260.16
2023-03-21T01:43:36.164Z,99260.09
2023-03-21T01:50:17.159Z,99247.78
2023-03-21T01:53:16.251Z,99246.88
2023-03-21T01:56:11.437Z,99239.06
2023-03-21T01:59:28.318Z,99245.06
2023-03-21T02:02:33.729Z,99247.59
2023-03-21T02:05:41.461Z,99247.59
2023-03-21T02:08:39.253Z,99238.97
2023-03-21T02:11:32.246Z,99227.69
2023-03-21T02:14:28.977Z,99235.59
2023-03-21T02:17:43.774Z,99236.44
2023-03-21T02:21:11.402Z,99233.88
2023-03-21T02:24:26.594Z,99219.97
2023-03-21T02:27:18.792Z,99221.72
2023-03-21T02:30:29.392Z,99219.97
2023-03-21T02:33:52.663Z,99211.22
2023-03-21T02:37:01.194Z,99218.97
2023-03-21T02:40:12.011Z,99218.09
2023-03-21T02:43:22.151Z,99216.41
2023-03-21T02:46:28.340Z,99214.69
2023-03-21T02:49:26.268Z,99210.34
2023-03-21T02:52:35.605Z,99206.03
2023-03-21T02:55:31.389Z,99200.88
2023-03-21T02:58:24.506Z,99212.91
2023-03-21T03:01:15.667Z,99204.31
2023-03-21T03:04:28.134Z,99204.31
2023-03-21T03:07:27.236Z,99205.09
2023-03-21T03:10:27.620Z,99207.66
2023-03-21T03:13:40.650Z,99204.22
2023-03-21T03:16:36.729Z,99210.19
2023-03-21T03:19:31.193Z,99209.34
2023-03-21T03:22:27.933Z,99198.97
2023-03-21T03:25:32.389Z,99204.13
2023-03-21T03:28:30.873Z,99197.22
2023-03-21T03:31:25.966Z,99200.66
2023-03-21T03:34:22.030Z,99199.94
2023-03-21T03:37:14.092Z,99194.88
2023-03-21T03:40:09.335Z,99142.09
2023-03-21T03:43:05.110Z,99200.88
2023-03-21T03:46:03.084Z,99197.34
2023-03-21T03:48:55.603Z,99199.53
2023-03-21T03:51:57.452Z,99182.06
2023-03-21T03:54:51.657Z,99204.28
2023-03-21T03:57:40.795Z,99196.44
2023-03-21T04:00:31.746Z,99183.34
2023-03-21T04:03:18.758Z,99185.00
2023-03-21T04:06:06.159Z,99195.28
2023-03-21T04:08:52.542Z,99183.19
2023-03-21T04:11:39.691Z,99181.34
2023-03-21T04:14:35.543Z,99183.91
2023-03-21T04:17:29.895Z,99187.22
2023-03-21T04:20:23.773Z,99187.94
2023-03-21T04:23:19.409Z,99191.34
2023-03-21T04:26:08.493Z,99183.59
2023-03-21T04:29:00.853Z,99181.84
2023-03-21T04:32:24.547Z,99167.22
2023-03-21T04:35:18.848Z,99181.91
2023-03-21T04:38:05.490Z,99169.84
2023-03-21T04:40:52.778Z,99170.75
2023-03-21T04:43:41.486Z,99179.56
2023-03-21T04:46:27.908Z,99177.13
2023-03-21T04:49:14.210Z,99178.78
2023-03-21T04:52:03.262Z,99171.25
2023-03-21T04:54:49.887Z,99172.47
2023-03-21T04:57:38.357Z,99144.88
2023-03-21T05:00:25.763Z,99173.94
2023-03-21T05:03:19.669Z,99172.09
2023-03-21T05:06:08.616Z,99165.84
2023-03-21T05:08:59.873Z,99178.47
2023-03-21T05:11:46.625Z,99180.97
2023-03-21T05:14:34.832Z,99186.06
2023-03-21T05:17:23.312Z,99174.84
2023-03-21T05:20:11.578Z,99185.97
2023-03-21T05:22:58.104Z,99182.53
2023-03-21T05:25:44.823Z,99173.91
2023-03-21T05:28:39.898Z,99168.91
2023-03-21T05:31:26.485Z,99178.47
2023-03-21T05:34:24.568Z,99168.19
2023-03-21T05:37:10.815Z,99183.78
2023-03-21T05:40:10.301Z,99178.66
2023-03-21T05:43:01.132Z,99180.44
2023-03-21T05:45:48.407Z,99189.28
2023-03-21T05:48:36.682Z,99187.09
2023-03-21T05:51:33.935Z,99184.50
2023-03-21T05:54:21.172Z,99194.69
2023-03-21T05:57:09.106Z,99179.06
2023-03-21T06:00:17.749Z,99193.63
2023-03-21T06:03:09.555Z,99196.38
2023-03-21T06:06:16.516Z,99199.47
2023-03-21T06:09:11.844Z,99200.16
2023-03-21T06:12:01.033Z,99195.75
2023-03-21T06:14:51.811Z,99196.03
2023-03-21T06:17:42.557Z,99194.97
2023-03-21T06:20:31.320Z,99173.31
2023-03-21T06:23:25.888Z,99189.97
2023-03-21T06:26:13.108Z,99188.31
2023-03-21T06:28:59.716Z,99185.13
2023-03-21T06:31:47.044Z,99188.09
2023-03-21T06:34:33.829Z,99182.88
2023-03-21T06:37:22.793Z,99182.16
2023-03-21T06:40:09.853Z,99175.56
2023-03-21T06:42:56.479Z,99180.44
2023-03-21T06:45:43.968Z,99178.94
2023-03-21T06:48:31.509Z,99174.72
2023-03-21T06:51:19.109Z,99180.91
2023-03-21T06:54:28.826Z,99167.28
2023-03-21T06:57:28.503Z,99108.72
2023-03-21T07:00:15.659Z,99178.66
2023-03-21T07:03:06.055Z,99182.28
2023-03-21T07:05:54.157Z,99166.03
2023-03-21T07:08:41.905Z,99170.41
2023-03-21T07:11:28.577Z,99175.72
2023-03-21T07:14:15.902Z,99170.63
2023-03-21T07:17:02.345Z,99180.19
2023-03-21T07:19:49.524Z,99180.19
2023-03-21T07:22:38.899Z,99181.09
2023-03-21T07:25:25.412Z,99187.22
2023-03-21T07:28:12.443Z,99181.22
2023-03-21T07:31:01.369Z,99172.63
2023-03-21T07:33:48.151Z,99187.34
2023-03-21T07:36:34.344Z,99183.88
2023-03-21T07:39:21.169Z,99187.34
2023-03-21T07:44:59.730Z,99175.25
2023-03-21T07:47:52.221Z,99170.94
2023-03-21T07:50:40.658Z,99164.91
2023-03-21T07:53:27.195Z,99154.53
2023-03-21T07:56:13.608Z,99173.53
2023-03-21T07:58:59.803Z,99160.59
2023-03-21T08:01:46.364Z,99170.03
2023-03-21T08:04:37.624Z,99172.63
2023-03-21T08:07:24.351Z,99162.25
2023-03-21T08:10:11.871Z,99166.50
2023-03-21T08:12:58.241Z,99159.63
2023-03-21T08:15:44.901Z,99160.38
2023-03-21T08:18:31.325Z,99164.66
2023-03-21T08:21:18.078Z,99112.06
2023-03-21T08:24:05.028Z,99160.28
2023-03-21T08:26:51.985Z,99153.34
2023-03-21T08:29:40.612Z,99163.63
2023-03-21T08:32:31.252Z,99154.88
2023-03-21T08:35:19.191Z,99157.41
2023-03-21T08:38:07.036Z,99160.75
2023-03-21T08:40:53.534Z,99142.50
2023-03-21T08:43:40.207Z,99146.56
2023-03-21T08:46:27.129Z,99149.13
2023-03-21T08:49:13.826Z,99143.91
2023-03-21T08:52:00.251Z,99136.78
2023-03-21T08:54:46.825Z,99136.69
2023-03-21T08:57:33.342Z,99128.06
2023-03-21T09:00:20.909Z,99134.00
2023-03-21T09:03:07.415Z,99132.16
2023-03-21T09:05:54.335Z,99132.81
2023-03-21T09:08:46.319Z,99130.94
2023-03-21T09:11:33.346Z,99131.78
2023-03-21T09:14:21.853Z,99117.53
2023-03-21T09:17:10.521Z,99113.28
2023-03-21T09:19:57.293Z,99134.34
2023-03-21T09:22:43.692Z,99129.50
2023-03-21T09:25:31.591Z,99117.72
2023-03-21T09:28:18.220Z,99131.75
2023-03-21T09:31:05.618Z,99106.31
2023-03-21T09:33:53.361Z,99100.91
2023-03-21T09:36:42.121Z,99080.09
2023-03-21T09:39:28.995Z,99124.69
2023-03-21T09:42:25.511Z,99128.47
2023-03-21T09:45:31.719Z,99128.97
2023-03-21T09:48:31.721Z,99127.75
2023-03-21T09:51:19.382Z,99125.06
2023-03-21T09:54:13.857Z,99127.13
2023-03-21T09:57:07.790Z,99120.09
2023-03-21T09:59:56.413Z,99106.94
2023-03-21T10:02:49.641Z,99104.72
2023-03-21T10:05:40.830Z,99114.41
2023-03-21T10:08:47.130Z,99106.03
2023-03-21T10:11:54.179Z,99094.22
2023-03-21T10:14:48.199Z,99103.81
2023-03-21T10:17:44.740Z,99101.41
2023-03-21T10:20:37.507Z,99104.84
2023-03-21T10:23:28.838Z,99096.44
2023-03-21T10:26:16.979Z,99089.63
2023-03-21T10:29:03.843Z,99090.19
2023-03-21T10:31:52.853Z,99095.34
2023-03-21T10:34:47.825Z,99088.81
2023-03-21T10:37:35.917Z,99088.75
2023-03-21T10:40:22.346Z,99072.13
2023-03-21T10:43:37.800Z,99080.28
2023-03-21T10:46:27.366Z,99087.81
2023-03-21T10:49:16.013Z,99081.16
2023-03-21T10:52:17.955Z,99081.53
2023-03-21T10:55:28.696Z,99077.53
2023-03-21T10:58:19.530Z,99084.56
2023-03-21T11:01:10.433Z,99064.69
2023-03-21T11:04:01.024Z,99080.81
2023-03-21T11:06:54.857Z,99076.25
2023-03-21T11:09:53.784Z,99067.25
2023-03-21T11:12:46.337Z,99050.09
2023-03-21T11:16:06.859Z,99067.59
2023-03-21T11:19:00.316Z,99060.88
2023-03-21T11:21:47.051Z,99054.72
2023-03-21T11:24:35.340Z,99058.13
2023-03-21T11:27:22.111Z,99062.75
2023-03-21T11:30:21.370Z,99042.44
2023-03-21T11:33:07.657Z,99057.41
2023-03-21T11:36:04.064Z,99051.81
2023-03-21T11:38:58.091Z,99048.66
2023-03-21T11:41:51.334Z,99025.81
2023-03-21T11:44:43.978Z,99050.84
2023-03-21T11:47:31.664Z,99039.66
2023-03-21T11:50:38.963Z,99020.72
2023-03-21T11:53:46.518Z,99024.22
2023-03-21T11:56:38.336Z,99016.66
2023-03-21T11:59:41.614Z,99018.69
2023-03-21T12:02:34.270Z,99028.34
2023-03-21T12:05:28.650Z,99018.66
2023-03-21T12:09:01.684Z,99009.06
2023-03-21T12:12:00.430Z,99007.97
2023-03-21T12:15:01.243Z,99002.25
2023-03-21T12:18:02.573Z,99001.50
2023-03-21T12:21:08.765Z,99000.34
2023-03-21T12:24:07.629Z,98990.63
2023-03-21T12:27:12.365Z,98994.03
2023-03-21T12:30:07.833Z,98986.78
2023-03-21T12:33:33.456Z,98982.91
2023-03-21T12:36:41.897Z,98986.84
2023-03-21T12:39:36.652Z,98982.88
2023-03-21T12:42:47.520Z,98977.19
2023-03-21T12:45:46.981Z,98970.22
2023-03-21T12:48:44.033Z,98973.00
2023-03-21T12:51:34.868Z,98979.25
2023-03-21T12:54:38.661Z,98969.78
2023-03-21T12:57:31.157Z,98967.91
2023-03-21T13:00:33.629Z,98969.78
2023-03-21T13:03:37.441Z,98955.59
2023-03-21T13:06:28.109Z,98958.22
2023-03-21T13:09:38.608Z,98966.25
2023-03-21T13:12:43.053Z,98962.63
2023-03-21T13:15:44.379Z,98961.50
2023-03-21T13:18:53.755Z,98952.66
2023-03-21T13:21:43.400Z,98950.31
2023-03-21T13:24:38.048Z,98956.28
2023-03-21T13:27:24.802Z,98949.44
2023-03-21T13:30:14.210Z,98957.06
2023-03-21T13:33:16.670Z,98955.00
2023-03-21T13:36:08.459Z,98941.88
2023-03-21T13:39:00.856Z,98940.88
2023-03-21T13:41:49.723Z,98943.50
2023-03-21T13:44:43.565Z,98926.28
2023-03-21T13:47:41.264Z,98928.03
2023-03-21T13:50:33.302Z,98915.06
2023-03-21T13:53:23.024Z,98911.19
2023-03-21T13:56:30.600Z,98901.94
2023-03-21T13:59:36.949Z,98910.13
2023-03-21T14:02:28.990Z,98907.53
2023-03-21T14:05:22.823Z,98905.72
2023-03-21T14:08:25.025Z,98897.00
2023-03-21T14:11:19.803Z,98895.97
2023-03-21T14:14:06.859Z,98889.41
2023-03-21T14:16:53.967Z,98894.53
2023-03-21T14:19:40.487Z,98898.41
2023-03-21T14:22:28.231Z,98895.09
2023-03-21T14:25:18.023Z,98907.28
2023-03-21T14:28:13.695Z,98896.91
2023-03-21T14:31:01.151Z,98886.41
2023-03-21T14:33:57.541Z,98904.13
2023-03-21T14:36:51.670Z,98895.75
2023-03-21T14:39:43.453Z,98898.38
2023-03-21T14:42:35.431Z,98885.78
2023-03-21T14:45:30.677Z,98900.13
2023-03-21T14:48:17.566Z,98895.53
2023-03-21T14:51:12.277Z,98896.09
2023-03-21T14:53:58.759Z,98898.03
2023-03-21T14:56:48.613Z,98898.78
2023-03-21T14:59:37.675Z,98889.06
2023-03-21T15:02:28.163Z,98866.97
2023-03-21T15:05:38.168Z,98885.09
2023-03-21T15:08:27.476Z,98881.88
2023-03-21T15:11:13.909Z,98884.44
2023-03-21T15:14:03.819Z,98883.56
2023-03-21T15:16:51.118Z,98854.88
2023-03-21T15:19:40.117Z,98868.50
2023-03-21T15:22:34.748Z,98870.72
2023-03-21T15:25:27.699Z,98878.50
2023-03-21T15:28:14.772Z,98869.94
2023-03-21T15:31:01.688Z,98862.50
2023-03-21T15:33:50.350Z,98876.59
2023-03-21T15:36:44.607Z,98877.41
2023-03-21T15:39:31.488Z,98872.34
2023-03-21T15:42:37.524Z,98869.19
2023-03-21T15:45:26.548Z,98867.66
2023-03-21T15:48:14.649Z,98867.84
2023-03-21T15:51:06.001Z,98871.31
2023-03-21T15:53:56.991Z,98868.00
2023-03-21T15:56:46.084Z,98875.06
2023-03-21T15:59:36.955Z,98866.53
2023-03-21T16:02:25.351Z,98876.97
2023-03-21T16:05:20.817Z,98871.91
2023-03-21T16:08:20.713Z,98864.25
2023-03-21T16:11:19.634Z,98863.66
2023-03-21T16:14:06.167Z,98859.50
2023-03-21T16:16:52.913Z,98856.16
2023-03-21T16:19:39.804Z,98848.59
2023-03-21T16:22:28.277Z,98859.97
2023-03-21T16:25:14.793Z,98852.50
2023-03-21T16:28:01.315Z,98797.75
2023-03-21T16:30:47.750Z,98859.94
2023-03-21T16:33:34.235Z,98859.94
2023-03-21T16:36:24.355Z,98858.16
2023-03-21T16:39:18.702Z,98857.50
2023-03-21T16:42:05.738Z,98853.56
2023-03-21T16:44:52.219Z,98846.66
2023-03-21T16:47:39.944Z,98853.56
2023-03-21T16:50:26.832Z,98860.66
2023-03-21T16:53:13.112Z,98860.00
2023-03-21T16:56:02.643Z,98866.00
2023-03-21T16:58:49.578Z,98866.47
2023-03-21T17:01:38.324Z,98865.94
2023-03-21T17:04:24.823Z,98874.97
2023-03-21T17:07:16.018Z,98875.97
2023-03-21T17:10:02.331Z,98862.31
2023-03-21T17:12:49.233Z,98872.16
2023-03-21T17:15:35.841Z,98866.56
2023-03-21T17:18:22.108Z,98863.97
2023-03-21T17:21:17.276Z,98870.34
2023-03-21T17:24:03.854Z,98875.75
2023-03-21T17:26:50.669Z,98875.00
2023-03-21T17:29:37.747Z,98874.28
2023-03-21T17:32:26.136Z,98870.91
2023-03-21T17:35:13.442Z,98874.44
2023-03-21T17:37:59.849Z,98876.25
2023-03-21T17:40:46.520Z,98871.09
2023-03-21T17:43:33.012Z,98889.41
2023-03-21T17:46:22.382Z,98879.25
2023-03-21T17:49:13.400Z,98888.81
2023-03-21T17:52:00.074Z,98885.47
2023-03-21T17:54:46.532Z,98881.31
2023-03-21T17:57:32.940Z,98885.69
2023-03-21T18:00:23.165Z,98884.03
2023-03-21T18:03:09.840Z,98893.63
2023-03-21T18:05:56.043Z,98886.72
2023-03-21T18:08:42.717Z,98860.13
2023-03-21T18:11:29.434Z,98855.88
2023-03-21T18:14:19.077Z,98874.00
2023-03-21T18:17:06.368Z,98873.16
2023-03-21T18:19:53.853Z,98862.03
2023-03-21T18:22:40.703Z,98862.03
2023-03-21T18:25:27.214Z,98879.41
2023-03-21T18:28:14.052Z,98887.88
2023-03-21T18:31:10.393Z,98904.22
2023-03-21T18:33:59.106Z,98889.47
2023-03-21T18:36:45.851Z,98908.47
2023-03-21T18:39:33.502Z,98884.50
2023-03-21T18:42:23.561Z,98894.09
2023-03-21T18:45:11.402Z,98877.81
2023-03-21T18:47:57.819Z,98901.16
2023-03-21T18:50:43.938Z,98875.38
2023-03-21T18:53:30.275Z,98873.69
2023-03-21T18:59:23.842Z,98897.00
2023-03-21T19:02:13.846Z,98889.25
2023-03-21T19:05:00.359Z,98892.75
2023-03-21T19:07:48.016Z,98904.81
2023-03-21T19:10:35.907Z,98906.53
2023-03-21T19:13:22.583Z,98912.63
2023-03-21T19:16:11.287Z,98887.72
2023-03-21T19:18:58.316Z,98904.97
2023-03-21T19:21:49.779Z,98899.00
2023-03-21T19:24:36.688Z,98904.19
2023-03-21T19:27:23.478Z,98905.94
2023-03-21T19:30:15.323Z,98898.19
2023-03-21T19:33:02.474Z,98877.50
2023-03-21T19:36:08.829Z,98888.69
2023-03-21T19:38:57.104Z,98897.38
2023-03-21T19:41:43.221Z,98897.41
2023-03-21T19:44:29.731Z,98894.00
2023-03-21T19:47:16.302Z,98897.50
2023-03-21T19:53:09.514Z,98871.66
2023-03-21T19:55:56.190Z,98883.69
2023-03-21T19:58:42.613Z,98888.00
2023-03-21T20:01:29.097Z,98894.06
2023-03-21T20:04:16.831Z,98893.19
2023-03-21T20:07:03.096Z,98895.78
2023-03-21T20:09:52.960Z,98880.25
2023-03-21T20:12:48.386Z,98899.16
2023-03-21T20:15:45.686Z,98890.47
2023-03-21T20:18:35.263Z,98881.97
2023-03-21T20:21:25.608Z,98901.78
2023-03-21T20:24:12.868Z,98894.03
2023-03-21T20:26:59.589Z,98894.94
2023-03-21T20:30:08.772Z,98893.22
2023-03-21T20:32:52.901Z,98906.19
2023-03-21T20:36:24.065Z,98907.09
2023-03-21T20:38:45.850Z,98913.13
2023-03-21T20:41:32.324Z,98913.13
2023-03-21T20:47:25.606Z,98905.38
2023-03-21T20:50:21.989Z,98898.53
2023-03-21T20:53:09.588Z,98912.31
2023-03-21T20:55:56.436Z,98908.00
2023-03-21T20:59:04.601Z,98915.75
2023-03-21T21:01:49.598Z,98913.19
2023-03-21T21:04:52.742Z,98894.22
2023-03-21T21:07:43.533Z,98905.41
2023-03-21T21:10:33.611Z,98900.22
2023-03-21T21:13:21.289Z,98904.53
2023-03-21T21:16:09.497Z,98884.72
2023-03-21T21:18:56.128Z,98896.78
2023-03-21T21:21:42.872Z,98895.06
2023-03-21T21:24:31.697Z,98903.66
2023-03-21T21:27:17.951Z,98890.75
2023-03-21T21:30:05.032Z,98906.25
2023-03-21T21:32:51.398Z,98909.69
2023-03-21T21:35:38.480Z,98888.19
2023-03-21T21:38:26.574Z,98907.13
2023-03-21T21:41:19.269Z,98910.59
2023-03-21T21:44:06.660Z,98892.47
2023-03-21T21:46:53.322Z,98917.47
2023-03-21T21:49:39.830Z,98902.84
2023-03-21T21:52:26.082Z,98906.28
2023-03-21T21:55:13.116Z,98889.03
2023-03-21T21:58:00.998Z,98885.56
2023-03-21T22:00:50.051Z,98904.53
2023-03-21T22:03:36.604Z,98888.16
2023-03-21T22:06:23.682Z,98897.63
2023-03-21T22:09:10.933Z,98899.28
2023-03-21T22:11:57.240Z,98897.47
2023-03-21T22:14:43.894Z,98901.69
2023-03-21T22:17:30.713Z,98896.47
2023-03-21T22:20:20.320Z,98899.03
2023-03-21T22:23:06.607Z,98907.56
2023-03-21T22:25:53.975Z,98910.09
2023-03-21T22:28:42.196Z,98914.28
2023-03-21T22:31:29.509Z,98920.22
2023-03-21T22:34:16.032Z,98919.31
2023-03-21T22:37:02.692Z,98921.84
2023-03-21T22:39:49.381Z,98915.84
2023-03-21T22:42:37.157Z,98919.34
2023-03-21T22:45:23.574Z,98919.34
2023-03-21T22:48:09.969Z,98916.78
2023-03-21T22:50:57.850Z,98919.31
2023-03-21T22:53:44.057Z,98915.78
2023-03-21T22:56:30.755Z,98902.81
2023-03-21T22:59:17.412Z,98894.09
2023-03-21T23:02:03.727Z,98926.81
2023-03-21T23:04:49.986Z,98927.63
2023-03-21T23:07:36.324Z,98912.84
2023-03-21T23:10:22.656Z,98924.88
2023-03-21T23:13:09.091Z,98923.31
2023-03-21T23:15:55.510Z,98930.91
2023-03-21T23:18:42.981Z,98920.56
2023-03-21T23:21:32.064Z,98923.03
2023-03-21T23:24:18.842Z,98921.97
2023-03-21T23:27:05.360Z,98927.88
2023-03-21T23:29:52.733Z,98922.66
2023-03-21T23:32:39.057Z,98923.38
2023-03-21T23:35:25.747Z,98923.28
2023-03-21T23:38:12.360Z,98915.44
2023-03-21T23:41:04.527Z,98911.94
2023-03-21T23:43:51.648Z,98916.97
2023-03-21T23:46:38.438Z,98914.31
2023-03-21T23:49:24.987Z,98917.59
2023-03-21T23:52:11.458Z,98896.78
2023-03-21T23:54:57.794Z,98909.72
2023-03-21T23:57:44.195Z,98903.69
